sensor_id;sensor_type;location;lat;lon;timestamp;P1;durP1;ratioP1;P2;durP2;ratioP2
51981;SDS011;37998;53.416;6.730;2023-05-10T00:01:12;10.85;;;9.75;;
51981;SDS011;37998;53.416;6.730;2023-05-10T00:03:38;12.27;;;10.77;;
51981;SDS011;37998;53.416;6.730;2023-05-10T00:06:05;13.20;;;10.73;;
51981;SDS011;37998;53.416;6.730;2023-05-10T00:08:31;10.57;;;9.50;;
51981;SDS011;37998;53.416;6.730;2023-05-10T00:10:57;11.07;;;10.00;;
51981;SDS011;37998;53.416;6.730;2023-05-10T00:13:23;10.73;;;9.73;;
51981;SDS011;37998;53.416;6.730;2023-05-10T00:15:48;11.93;;;10.82;;
51981;SDS011;37998;53.416;6.730;2023-05-10T00:18:15;11.25;;;10.13;;
51981;SDS011;37998;53.416;6.730;2023-05-10T00:20:41;13.57;;;10.65;;
51981;SDS011;37998;53.416;6.730;2023-05-10T00:23:07;11.13;;;10.02;;
51981;SDS011;37998;53.416;6.730;2023-05-10T00:25:33;11.98;;;10.43;;
51981;SDS011;37998;53.416;6.730;2023-05-10T00:27:59;11.63;;;10.52;;
51981;SDS011;37998;53.416;6.730;2023-05-10T00:30:26;12.00;;;10.90;;
51981;SDS011;37998;53.416;6.730;2023-05-10T00:32:55;12.77;;;11.63;;
51981;SDS011;37998;53.416;6.730;2023-05-10T00:35:21;14.23;;;11.55;;
51981;SDS011;37998;53.416;6.730;2023-05-10T00:37:47;10.70;;;9.70;;
51981;SDS011;37998;53.416;6.730;2023-05-10T00:40:13;10.90;;;9.80;;
51981;SDS011;37998;53.416;6.730;2023-05-10T00:42:42;10.50;;;9.45;;
51981;SDS011;37998;53.416;6.730;2023-05-10T00:45:08;10.38;;;9.38;;
51981;SDS011;37998;53.416;6.730;2023-05-10T00:47:34;11.00;;;9.90;;
51981;SDS011;37998;53.416;6.730;2023-05-10T00:50:01;11.57;;;10.35;;
51981;SDS011;37998;53.416;6.730;2023-05-10T00:52:28;11.63;;;10.48;;
51981;SDS011;37998;53.416;6.730;2023-05-10T00:54:55;12.70;;;11.38;;
51981;SDS011;37998;53.416;6.730;2023-05-10T00:57:22;12.55;;;11.27;;
51981;SDS011;37998;53.416;6.730;2023-05-10T00:59:48;11.23;;;10.02;;
51981;SDS011;37998;53.416;6.730;2023-05-10T01:02:14;11.95;;;10.73;;
51981;SDS011;37998;53.416;6.730;2023-05-10T01:04:40;11.52;;;10.43;;
51981;SDS011;37998;53.416;6.730;2023-05-10T01:07:06;11.70;;;10.50;;
51981;SDS011;37998;53.416;6.730;2023-05-10T01:09:32;12.07;;;10.80;;
51981;SDS011;37998;53.416;6.730;2023-05-10T01:11:59;11.93;;;10.73;;
51981;SDS011;37998;53.416;6.730;2023-05-10T01:14:28;11.68;;;10.48;;
51981;SDS011;37998;53.416;6.730;2023-05-10T01:16:54;12.25;;;10.82;;
51981;SDS011;37998;53.416;6.730;2023-05-10T01:19:25;11.88;;;10.68;;
51981;SDS011;37998;53.416;6.730;2023-05-10T01:24:46;11.48;;;10.27;;
51981;SDS011;37998;53.416;6.730;2023-05-10T01:33:26;15.57;;;11.07;;
51981;SDS011;37998;53.416;6.730;2023-05-10T01:36:31;11.93;;;10.68;;
51981;SDS011;37998;53.416;6.730;2023-05-10T01:41:49;11.43;;;10.32;;
51981;SDS011;37998;53.416;6.730;2023-05-10T01:47:02;10.52;;;9.45;;
51981;SDS011;37998;53.416;6.730;2023-05-10T01:49:34;11.57;;;10.38;;
51981;SDS011;37998;53.416;6.730;2023-05-10T01:52:08;11.07;;;9.98;;
51981;SDS011;37998;53.416;6.730;2023-05-10T01:54:44;12.18;;;9.02;;
51981;SDS011;37998;53.416;6.730;2023-05-10T01:59:47;13.20;;;9.60;;
51981;SDS011;37998;53.416;6.730;2023-05-10T02:02:16;10.27;;;9.20;;
51981;SDS011;37998;53.416;6.730;2023-05-10T02:04:44;10.30;;;9.30;;
51981;SDS011;37998;53.416;6.730;2023-05-10T02:07:11;9.45;;;8.50;;
51981;SDS011;37998;53.416;6.730;2023-05-10T02:09:38;8.80;;;7.90;;
51981;SDS011;37998;53.416;6.730;2023-05-10T02:12:06;9.77;;;8.77;;
51981;SDS011;37998;53.416;6.730;2023-05-10T02:14:35;9.38;;;8.48;;
51981;SDS011;37998;53.416;6.730;2023-05-10T02:17:02;9.98;;;8.98;;
51981;SDS011;37998;53.416;6.730;2023-05-10T02:19:30;11.13;;;7.97;;
51981;SDS011;37998;53.416;6.730;2023-05-10T02:21:59;8.77;;;7.88;;
51981;SDS011;37998;53.416;6.730;2023-05-10T02:24:26;9.13;;;8.23;;
51981;SDS011;37998;53.416;6.730;2023-05-10T02:26:53;10.25;;;8.90;;
51981;SDS011;37998;53.416;6.730;2023-05-10T02:29:21;9.65;;;8.65;;
51981;SDS011;37998;53.416;6.730;2023-05-10T02:31:51;10.30;;;8.73;;
51981;SDS011;37998;53.416;6.730;2023-05-10T02:34:18;10.45;;;8.85;;
51981;SDS011;37998;53.416;6.730;2023-05-10T02:36:47;9.73;;;8.73;;
51981;SDS011;37998;53.416;6.730;2023-05-10T02:39:14;10.00;;;8.95;;
51981;SDS011;37998;53.416;6.730;2023-05-10T02:41:41;10.70;;;8.95;;
51981;SDS011;37998;53.416;6.730;2023-05-10T02:44:08;10.32;;;9.32;;
51981;SDS011;37998;53.416;6.730;2023-05-10T02:46:35;11.07;;;9.98;;
51981;SDS011;37998;53.416;6.730;2023-05-10T02:49:02;11.20;;;9.68;;
51981;SDS011;37998;53.416;6.730;2023-05-10T02:51:30;11.93;;;10.43;;
51981;SDS011;37998;53.416;6.730;2023-05-10T02:54:00;10.73;;;9.63;;
51981;SDS011;37998;53.416;6.730;2023-05-10T02:56:33;11.43;;;10.32;;
51981;SDS011;37998;53.416;6.730;2023-05-10T02:59:01;11.75;;;10.57;;
51981;SDS011;37998;53.416;6.730;2023-05-10T03:01:27;11.88;;;10.75;;
51981;SDS011;37998;53.416;6.730;2023-05-10T03:03:53;11.52;;;10.43;;
51981;SDS011;37998;53.416;6.730;2023-05-10T03:06:19;11.88;;;10.68;;
51981;SDS011;37998;53.416;6.730;2023-05-10T03:08:45;11.60;;;10.50;;
51981;SDS011;37998;53.416;6.730;2023-05-10T03:16:27;14.45;;;12.35;;
51981;SDS011;37998;53.416;6.730;2023-05-10T03:19:02;17.00;;;13.35;;
51981;SDS011;37998;53.416;6.730;2023-05-10T03:21:33;17.42;;;13.73;;
51981;SDS011;37998;53.416;6.730;2023-05-10T03:24:05;12.75;;;11.43;;
51981;SDS011;37998;53.416;6.730;2023-05-10T03:26:34;11.98;;;10.57;;
51981;SDS011;37998;53.416;6.730;2023-05-10T03:31:33;10.07;;;9.07;;
51981;SDS011;37998;53.416;6.730;2023-05-10T03:33:59;11.90;;;10.30;;
51981;SDS011;37998;53.416;6.730;2023-05-10T03:36:26;11.88;;;10.68;;
51981;SDS011;37998;53.416;6.730;2023-05-10T03:38:53;12.73;;;10.25;;
51981;SDS011;37998;53.416;6.730;2023-05-10T03:41:19;12.52;;;10.82;;
51981;SDS011;37998;53.416;6.730;2023-05-10T03:43:46;11.40;;;10.20;;
51981;SDS011;37998;53.416;6.730;2023-05-10T03:46:12;12.35;;;11.05;;
51981;SDS011;37998;53.416;6.730;2023-05-10T03:48:38;13.27;;;11.10;;
51981;SDS011;37998;53.416;6.730;2023-05-10T03:51:04;13.55;;;11.20;;
51981;SDS011;37998;53.416;6.730;2023-05-10T03:53:30;15.25;;;12.45;;
51981;SDS011;37998;53.416;6.730;2023-05-10T03:55:56;16.38;;;12.52;;
51981;SDS011;37998;53.416;6.730;2023-05-10T03:58:22;15.05;;;13.35;;
51981;SDS011;37998;53.416;6.730;2023-05-10T04:00:48;17.13;;;13.55;;
51981;SDS011;37998;53.416;6.730;2023-05-10T04:03:14;16.25;;;13.52;;
51981;SDS011;37998;53.416;6.730;2023-05-10T04:05:40;14.63;;;12.40;;
51981;SDS011;37998;53.416;6.730;2023-05-10T04:08:06;17.95;;;13.60;;
51981;SDS011;37998;53.416;6.730;2023-05-10T04:10:32;17.05;;;13.43;;
51981;SDS011;37998;53.416;6.730;2023-05-10T04:12:58;16.60;;;12.98;;
51981;SDS011;37998;53.416;6.730;2023-05-10T04:15:24;19.00;;;13.65;;
51981;SDS011;37998;53.416;6.730;2023-05-10T04:17:50;19.45;;;14.40;;
51981;SDS011;37998;53.416;6.730;2023-05-10T04:20:16;16.70;;;13.75;;
51981;SDS011;37998;53.416;6.730;2023-05-10T04:22:42;17.60;;;14.18;;
51981;SDS011;37998;53.416;6.730;2023-05-10T04:25:08;18.23;;;14.27;;
51981;SDS011;37998;53.416;6.730;2023-05-10T04:27:34;19.65;;;15.27;;
51981;SDS011;37998;53.416;6.730;2023-05-10T04:30:00;19.73;;;15.20;;
51981;SDS011;37998;53.416;6.730;2023-05-10T04:32:26;16.52;;;14.38;;
51981;SDS011;37998;53.416;6.730;2023-05-10T04:34:52;18.00;;;13.90;;
51981;SDS011;37998;53.416;6.730;2023-05-10T04:37:18;17.25;;;14.82;;
51981;SDS011;37998;53.416;6.730;2023-05-10T04:39:45;15.50;;;13.75;;
51981;SDS011;37998;53.416;6.730;2023-05-10T04:42:11;18.50;;;14.25;;
51981;SDS011;37998;53.416;6.730;2023-05-10T04:44:37;18.00;;;14.88;;
51981;SDS011;37998;53.416;6.730;2023-05-10T04:47:03;14.93;;;12.57;;
51981;SDS011;37998;53.416;6.730;2023-05-10T04:49:29;15.40;;;13.38;;
51981;SDS011;37998;53.416;6.730;2023-05-10T04:51:55;17.88;;;13.65;;
51981;SDS011;37998;53.416;6.730;2023-05-10T04:54:21;17.42;;;14.15;;
51981;SDS011;37998;53.416;6.730;2023-05-10T04:56:47;16.15;;;12.38;;
51981;SDS011;37998;53.416;6.730;2023-05-10T04:59:13;16.90;;;13.27;;
51981;SDS011;37998;53.416;6.730;2023-05-10T05:01:39;18.42;;;14.32;;
51981;SDS011;37998;53.416;6.730;2023-05-10T05:04:05;15.65;;;13.00;;
51981;SDS011;37998;53.416;6.730;2023-05-10T05:06:32;16.90;;;12.57;;
51981;SDS011;37998;53.416;6.730;2023-05-10T05:08:57;16.98;;;13.13;;
51981;SDS011;37998;53.416;6.730;2023-05-10T05:11:23;13.85;;;11.77;;
51981;SDS011;37998;53.416;6.730;2023-05-10T05:13:50;14.40;;;12.07;;
51981;SDS011;37998;53.416;6.730;2023-05-10T05:16:16;12.18;;;10.88;;
51981;SDS011;37998;53.416;6.730;2023-05-10T05:18:42;12.10;;;10.38;;
51981;SDS011;37998;53.416;6.730;2023-05-10T05:21:17;13.30;;;11.25;;
51981;SDS011;37998;53.416;6.730;2023-05-10T05:23:44;14.45;;;9.80;;
51981;SDS011;37998;53.416;6.730;2023-05-10T05:26:11;10.43;;;9.43;;
51981;SDS011;37998;53.416;6.730;2023-05-10T05:28:37;9.68;;;8.55;;
51981;SDS011;37998;53.416;6.730;2023-05-10T05:31:06;10.60;;;9.60;;
51981;SDS011;37998;53.416;6.730;2023-05-10T05:33:33;10.48;;;9.38;;
51981;SDS011;37998;53.416;6.730;2023-05-10T05:36:02;9.55;;;8.43;;
51981;SDS011;37998;53.416;6.730;2023-05-10T05:38:29;10.35;;;8.38;;
51981;SDS011;37998;53.416;6.730;2023-05-10T05:40:55;7.13;;;6.43;;
51981;SDS011;37998;53.416;6.730;2023-05-10T05:43:22;5.75;;;5.20;;
51981;SDS011;37998;53.416;6.730;2023-05-10T05:45:48;5.78;;;4.68;;
51981;SDS011;37998;53.416;6.730;2023-05-10T05:48:14;3.92;;;2.80;;
51981;SDS011;37998;53.416;6.730;2023-05-10T05:50:40;2.13;;;2.00;;
51981;SDS011;37998;53.416;6.730;2023-05-10T05:53:06;2.00;;;1.80;;
51981;SDS011;37998;53.416;6.730;2023-05-10T05:55:32;1.00;;;1.00;;
51981;SDS011;37998;53.416;6.730;2023-05-10T05:57:58;1.00;;;1.00;;
51981;SDS011;37998;53.416;6.730;2023-05-10T06:00:24;0.98;;;0.98;;
51981;SDS011;37998;53.416;6.730;2023-05-10T06:02:50;1.00;;;1.00;;
51981;SDS011;37998;53.416;6.730;2023-05-10T06:05:15;1.30;;;1.20;;
51981;SDS011;37998;53.416;6.730;2023-05-10T06:07:41;1.70;;;1.60;;
51981;SDS011;37998;53.416;6.730;2023-05-10T06:10:08;2.25;;;2.15;;
51981;SDS011;37998;53.416;6.730;2023-05-10T06:12:34;2.50;;;2.30;;
51981;SDS011;37998;53.416;6.730;2023-05-10T06:15:01;3.10;;;2.85;;
51981;SDS011;37998;53.416;6.730;2023-05-10T06:17:27;2.85;;;2.60;;
51981;SDS011;37998;53.416;6.730;2023-05-10T06:19:54;2.40;;;2.20;;
51981;SDS011;37998;53.416;6.730;2023-05-10T06:22:20;3.10;;;2.78;;
51981;SDS011;37998;53.416;6.730;2023-05-10T06:24:48;3.63;;;3.30;;
51981;SDS011;37998;53.416;6.730;2023-05-10T06:27:14;3.90;;;3.50;;
51981;SDS011;37998;53.416;6.730;2023-05-10T06:29:40;5.50;;;4.20;;
51981;SDS011;37998;53.416;6.730;2023-05-10T06:32:06;5.15;;;3.90;;
51981;SDS011;37998;53.416;6.730;2023-05-10T06:34:32;6.00;;;4.60;;
51981;SDS011;37998;53.416;6.730;2023-05-10T06:36:58;9.15;;;5.10;;
51981;SDS011;37998;53.416;6.730;2023-05-10T06:39:24;12.50;;;5.88;;
51981;SDS011;37998;53.416;6.730;2023-05-10T06:41:50;15.27;;;6.68;;
51981;SDS011;37998;53.416;6.730;2023-05-10T06:44:18;9.52;;;5.88;;
51981;SDS011;37998;53.416;6.730;2023-05-10T06:46:44;6.95;;;4.20;;
51981;SDS011;37998;53.416;6.730;2023-05-10T06:49:10;7.82;;;4.20;;
51981;SDS011;37998;53.416;6.730;2023-05-10T06:51:35;9.43;;;4.38;;
51981;SDS011;37998;53.416;6.730;2023-05-10T06:54:01;9.15;;;6.00;;
51981;SDS011;37998;53.416;6.730;2023-05-10T06:56:27;12.13;;;6.97;;
51981;SDS011;37998;53.416;6.730;2023-05-10T06:58:53;9.40;;;6.78;;
51981;SDS011;37998;53.416;6.730;2023-05-10T07:01:19;8.52;;;5.18;;
51981;SDS011;37998;53.416;6.730;2023-05-10T07:03:45;7.82;;;5.35;;
51981;SDS011;37998;53.416;6.730;2023-05-10T07:06:11;6.10;;;5.50;;
51981;SDS011;37998;53.416;6.730;2023-05-10T07:08:37;7.97;;;6.18;;
51981;SDS011;37998;53.416;6.730;2023-05-10T07:11:03;6.68;;;6.07;;
51981;SDS011;37998;53.416;6.730;2023-05-10T07:13:30;8.70;;;7.80;;
51981;SDS011;37998;53.416;6.730;2023-05-10T07:15:57;9.10;;;8.30;;
51981;SDS011;37998;53.416;6.730;2023-05-10T07:18:23;7.90;;;7.10;;
51981;SDS011;37998;53.416;6.730;2023-05-10T07:20:50;8.77;;;7.97;;
51981;SDS011;37998;53.416;6.730;2023-05-10T07:23:16;9.80;;;8.90;;
51981;SDS011;37998;53.416;6.730;2023-05-10T07:25:49;11.00;;;10.00;;
51981;SDS011;37998;53.416;6.730;2023-05-10T07:28:17;10.55;;;9.55;;
51981;SDS011;37998;53.416;6.730;2023-05-10T07:30:43;10.65;;;9.70;;
51981;SDS011;37998;53.416;6.730;2023-05-10T07:33:10;9.98;;;9.07;;
51981;SDS011;37998;53.416;6.730;2023-05-10T07:35:37;8.20;;;7.50;;
51981;SDS011;37998;53.416;6.730;2023-05-10T07:38:03;9.45;;;8.50;;
51981;SDS011;37998;53.416;6.730;2023-05-10T07:40:29;8.57;;;7.78;;
51981;SDS011;37998;53.416;6.730;2023-05-10T07:42:55;9.55;;;8.75;;
51981;SDS011;37998;53.416;6.730;2023-05-10T07:45:21;7.43;;;6.82;;
51981;SDS011;37998;53.416;6.730;2023-05-10T07:47:48;6.68;;;6.18;;
51981;SDS011;37998;53.416;6.730;2023-05-10T07:50:14;6.15;;;5.65;;
51981;SDS011;37998;53.416;6.730;2023-05-10T07:52:40;4.93;;;4.53;;
51981;SDS011;37998;53.416;6.730;2023-05-10T07:55:07;4.70;;;4.32;;
51981;SDS011;37998;53.416;6.730;2023-05-10T07:57:34;6.85;;;6.25;;
51981;SDS011;37998;53.416;6.730;2023-05-10T08:00:00;5.40;;;5.00;;
51981;SDS011;37998;53.416;6.730;2023-05-10T08:02:26;5.47;;;4.97;;
51981;SDS011;37998;53.416;6.730;2023-05-10T08:04:52;5.20;;;4.70;;
51981;SDS011;37998;53.416;6.730;2023-05-10T08:07:18;6.22;;;4.93;;
51981;SDS011;37998;53.416;6.730;2023-05-10T08:09:43;4.90;;;4.50;;
51981;SDS011;37998;53.416;6.730;2023-05-10T08:12:09;4.75;;;4.35;;
51981;SDS011;37998;53.416;6.730;2023-05-10T08:14:35;4.38;;;3.97;;
51981;SDS011;37998;53.416;6.730;2023-05-10T08:17:04;3.63;;;3.33;;
51981;SDS011;37998;53.416;6.730;2023-05-10T08:19:30;3.35;;;3.05;;
51981;SDS011;37998;53.416;6.730;2023-05-10T08:21:56;4.13;;;3.25;;
51981;SDS011;37998;53.416;6.730;2023-05-10T08:24:22;3.10;;;2.90;;
51981;SDS011;37998;53.416;6.730;2023-05-10T08:26:48;3.58;;;3.28;;
51981;SDS011;37998;53.416;6.730;2023-05-10T08:29:14;3.65;;;3.35;;
51981;SDS011;37998;53.416;6.730;2023-05-10T08:31:40;4.95;;;4.45;;
51981;SDS011;37998;53.416;6.730;2023-05-10T08:34:06;4.00;;;3.60;;
51981;SDS011;37998;53.416;6.730;2023-05-10T08:36:32;5.68;;;4.20;;
51981;SDS011;37998;53.416;6.730;2023-05-10T08:38:58;4.95;;;4.50;;
51981;SDS011;37998;53.416;6.730;2023-05-10T08:41:24;5.72;;;4.25;;
51981;SDS011;37998;53.416;6.730;2023-05-10T08:43:53;5.20;;;4.55;;
51981;SDS011;37998;53.416;6.730;2023-05-10T08:46:20;4.10;;;3.80;;
51981;SDS011;37998;53.416;6.730;2023-05-10T08:48:47;6.20;;;4.47;;
51981;SDS011;37998;53.416;6.730;2023-05-10T08:51:18;2.95;;;2.75;;
51981;SDS011;37998;53.416;6.730;2023-05-10T08:53:47;3.97;;;2.40;;
51981;SDS011;37998;53.416;6.730;2023-05-10T08:56:13;2.00;;;1.90;;
51981;SDS011;37998;53.416;6.730;2023-05-10T08:58:40;2.55;;;2.10;;
51981;SDS011;37998;53.416;6.730;2023-05-10T09:01:06;2.53;;;2.33;;
51981;SDS011;37998;53.416;6.730;2023-05-10T09:03:34;2.20;;;1.92;;
51981;SDS011;37998;53.416;6.730;2023-05-10T09:06:00;2.70;;;2.50;;
51981;SDS011;37998;53.416;6.730;2023-05-10T09:08:26;2.60;;;2.40;;
51981;SDS011;37998;53.416;6.730;2023-05-10T09:10:54;3.10;;;2.45;;
51981;SDS011;37998;53.416;6.730;2023-05-10T09:13:20;2.55;;;2.20;;
51981;SDS011;37998;53.416;6.730;2023-05-10T09:15:47;2.85;;;2.25;;
51981;SDS011;37998;53.416;6.730;2023-05-10T09:18:14;2.17;;;2.08;;
51981;SDS011;37998;53.416;6.730;2023-05-10T09:20:40;2.70;;;2.50;;
51981;SDS011;37998;53.416;6.730;2023-05-10T09:23:06;2.95;;;2.30;;
51981;SDS011;37998;53.416;6.730;2023-05-10T09:25:33;2.88;;;2.65;;
51981;SDS011;37998;53.416;6.730;2023-05-10T09:27:59;3.55;;;3.17;;
51981;SDS011;37998;53.416;6.730;2023-05-10T09:30:26;3.00;;;2.63;;
51981;SDS011;37998;53.416;6.730;2023-05-10T09:32:54;2.78;;;2.50;;
51981;SDS011;37998;53.416;6.730;2023-05-10T09:35:22;4.13;;;3.10;;
51981;SDS011;37998;53.416;6.730;2023-05-10T09:37:51;3.05;;;2.85;;
51981;SDS011;37998;53.416;6.730;2023-05-10T09:40:22;2.75;;;2.55;;
51981;SDS011;37998;53.416;6.730;2023-05-10T09:45:35;3.58;;;2.60;;
51981;SDS011;37998;53.416;6.730;2023-05-10T09:48:01;3.15;;;2.90;;
51981;SDS011;37998;53.416;6.730;2023-05-10T09:50:29;3.17;;;2.85;;
51981;SDS011;37998;53.416;6.730;2023-05-10T09:52:57;4.30;;;3.90;;
51981;SDS011;37998;53.416;6.730;2023-05-10T09:55:43;4.13;;;3.58;;
51981;SDS011;37998;53.416;6.730;2023-05-10T09:58:11;5.22;;;3.92;;
51981;SDS011;37998;53.416;6.730;2023-05-10T10:00:47;4.13;;;3.40;;
51981;SDS011;37998;53.416;6.730;2023-05-10T10:03:17;4.03;;;3.42;;
51981;SDS011;37998;53.416;6.730;2023-05-10T10:05:44;4.32;;;3.17;;
51981;SDS011;37998;53.416;6.730;2023-05-10T10:08:11;3.17;;;2.88;;
51981;SDS011;37998;53.416;6.730;2023-05-10T10:10:38;5.20;;;3.25;;
51981;SDS011;37998;53.416;6.730;2023-05-10T10:13:06;4.93;;;3.25;;
51981;SDS011;37998;53.416;6.730;2023-05-10T10:15:33;3.22;;;2.92;;
51981;SDS011;37998;53.416;6.730;2023-05-10T10:18:00;2.75;;;2.55;;
51981;SDS011;37998;53.416;6.730;2023-05-10T10:20:26;4.25;;;3.85;;
51981;SDS011;37998;53.416;6.730;2023-05-10T10:22:53;3.40;;;3.10;;
51981;SDS011;37998;53.416;6.730;2023-05-10T10:25:19;3.63;;;3.20;;
51981;SDS011;37998;53.416;6.730;2023-05-10T10:35:31;4.72;;;3.08;;
51981;SDS011;37998;53.416;6.730;2023-05-10T10:37:58;3.22;;;2.92;;
51981;SDS011;37998;53.416;6.730;2023-05-10T10:42:54;3.15;;;2.85;;
51981;SDS011;37998;53.416;6.730;2023-05-10T10:45:20;3.03;;;2.28;;
51981;SDS011;37998;53.416;6.730;2023-05-10T10:47:47;3.00;;;2.67;;
51981;SDS011;37998;53.416;6.730;2023-05-10T10:50:15;2.45;;;2.15;;
51981;SDS011;37998;53.416;6.730;2023-05-10T10:52:43;5.15;;;2.80;;
51981;SDS011;37998;53.416;6.730;2023-05-10T10:55:14;2.50;;;2.30;;
51981;SDS011;37998;53.416;6.730;2023-05-10T10:57:48;2.08;;;1.92;;
51981;SDS011;37998;53.416;6.730;2023-05-10T11:00:32;2.00;;;1.88;;
51981;SDS011;37998;53.416;6.730;2023-05-10T11:03:10;2.50;;;2.30;;
51981;SDS011;37998;53.416;6.730;2023-05-10T11:05:44;4.35;;;2.97;;
51981;SDS011;37998;53.416;6.730;2023-05-10T11:10:49;4.03;;;3.10;;
51981;SDS011;37998;53.416;6.730;2023-05-10T11:13:31;3.00;;;2.33;;
51981;SDS011;37998;53.416;6.730;2023-05-10T11:19:01;4.65;;;2.60;;
51981;SDS011;37998;53.416;6.730;2023-05-10T11:21:28;3.13;;;2.83;;
51981;SDS011;37998;53.416;6.730;2023-05-10T11:23:56;4.35;;;3.22;;
51981;SDS011;37998;53.416;6.730;2023-05-10T11:26:23;3.15;;;2.45;;
51981;SDS011;37998;53.416;6.730;2023-05-10T11:28:52;4.60;;;3.63;;
51981;SDS011;37998;53.416;6.730;2023-05-10T11:31:22;3.42;;;2.92;;
51981;SDS011;37998;53.416;6.730;2023-05-10T11:33:53;5.10;;;3.45;;
51981;SDS011;37998;53.416;6.730;2023-05-10T11:36:22;4.55;;;3.78;;
51981;SDS011;37998;53.416;6.730;2023-05-10T11:38:50;4.80;;;4.30;;
51981;SDS011;37998;53.416;6.730;2023-05-10T11:41:17;5.43;;;4.50;;
51981;SDS011;37998;53.416;6.730;2023-05-10T11:43:46;4.97;;;4.47;;
51981;SDS011;37998;53.416;6.730;2023-05-10T11:46:14;5.07;;;4.28;;
51981;SDS011;37998;53.416;6.730;2023-05-10T11:48:41;8.40;;;5.30;;
51981;SDS011;37998;53.416;6.730;2023-05-10T11:51:08;7.80;;;5.38;;
51981;SDS011;37998;53.416;6.730;2023-05-10T11:53:35;7.60;;;5.70;;
51981;SDS011;37998;53.416;6.730;2023-05-10T11:58:37;9.93;;;6.07;;
51981;SDS011;37998;53.416;6.730;2023-05-10T12:01:04;8.60;;;6.85;;
51981;SDS011;37998;53.416;6.730;2023-05-10T12:03:31;9.70;;;6.97;;
51981;SDS011;37998;53.416;6.730;2023-05-10T12:05:58;9.20;;;6.40;;
51981;SDS011;37998;53.416;6.730;2023-05-10T12:08:25;10.30;;;6.30;;
51981;SDS011;37998;53.416;6.730;2023-05-10T12:10:53;6.63;;;5.85;;
51981;SDS011;37998;53.416;6.730;2023-05-10T12:13:28;9.02;;;6.15;;
51981;SDS011;37998;53.416;6.730;2023-05-10T12:15:57;9.00;;;5.75;;
51981;SDS011;37998;53.416;6.730;2023-05-10T12:18:23;14.48;;;7.85;;
51981;SDS011;37998;53.416;6.730;2023-05-10T12:20:52;11.07;;;7.75;;
51981;SDS011;37998;53.416;6.730;2023-05-10T12:23:19;9.60;;;7.80;;
51981;SDS011;37998;53.416;6.730;2023-05-10T12:25:46;9.80;;;8.45;;
51981;SDS011;37998;53.416;6.730;2023-05-10T12:28:12;10.65;;;8.10;;
51981;SDS011;37998;53.416;6.730;2023-05-10T12:30:38;10.20;;;7.90;;
51981;SDS011;37998;53.416;6.730;2023-05-10T12:33:08;9.25;;;6.70;;
51981;SDS011;37998;53.416;6.730;2023-05-10T12:35:45;8.52;;;7.15;;
51981;SDS011;37998;53.416;6.730;2023-05-10T12:40:52;8.07;;;7.07;;
51981;SDS011;37998;53.416;6.730;2023-05-10T12:43:18;9.48;;;7.03;;
51981;SDS011;37998;53.416;6.730;2023-05-10T12:45:43;6.97;;;5.90;;
51981;SDS011;37998;53.416;6.730;2023-05-10T12:48:13;8.35;;;6.22;;
51981;SDS011;37998;53.416;6.730;2023-05-10T12:50:39;8.27;;;6.68;;
51981;SDS011;37998;53.416;6.730;2023-05-10T12:53:05;6.03;;;5.13;;
51981;SDS011;37998;53.416;6.730;2023-05-10T12:55:30;9.27;;;5.38;;
51981;SDS011;37998;53.416;6.730;2023-05-10T12:57:56;6.03;;;5.35;;
51981;SDS011;37998;53.416;6.730;2023-05-10T13:00:22;9.00;;;7.78;;
51981;SDS011;37998;53.416;6.730;2023-05-10T13:02:48;9.52;;;8.55;;
51981;SDS011;37998;53.416;6.730;2023-05-10T13:05:14;11.48;;;8.95;;
51981;SDS011;37998;53.416;6.730;2023-05-10T13:07:40;9.90;;;8.55;;
51981;SDS011;37998;53.416;6.730;2023-05-10T13:10:06;10.25;;;8.88;;
51981;SDS011;37998;53.416;6.730;2023-05-10T13:12:32;9.75;;;8.27;;
51981;SDS011;37998;53.416;6.730;2023-05-10T13:14:58;13.68;;;10.73;;
51981;SDS011;37998;53.416;6.730;2023-05-10T13:17:25;13.25;;;10.27;;
51981;SDS011;37998;53.416;6.730;2023-05-10T13:19:51;14.25;;;11.27;;
51981;SDS011;37998;53.416;6.730;2023-05-10T13:22:17;10.85;;;8.77;;
51981;SDS011;37998;53.416;6.730;2023-05-10T13:24:43;10.63;;;8.95;;
51981;SDS011;37998;53.416;6.730;2023-05-10T13:27:08;11.68;;;9.52;;
51981;SDS011;37998;53.416;6.730;2023-05-10T13:29:34;10.07;;;8.77;;
51981;SDS011;37998;53.416;6.730;2023-05-10T13:32:00;12.02;;;10.13;;
51981;SDS011;37998;53.416;6.730;2023-05-10T13:34:26;11.93;;;9.75;;
51981;SDS011;37998;53.416;6.730;2023-05-10T13:36:52;9.95;;;8.80;;
51981;SDS011;37998;53.416;6.730;2023-05-10T13:39:20;9.43;;;8.45;;
51981;SDS011;37998;53.416;6.730;2023-05-10T13:41:46;10.82;;;8.48;;
51981;SDS011;37998;53.416;6.730;2023-05-10T13:44:13;11.35;;;8.88;;
51981;SDS011;37998;53.416;6.730;2023-05-10T13:46:40;11.77;;;9.77;;
51981;SDS011;37998;53.416;6.730;2023-05-10T13:49:08;12.30;;;8.80;;
51981;SDS011;37998;53.416;6.730;2023-05-10T13:51:34;12.77;;;9.80;;
51981;SDS011;37998;53.416;6.730;2023-05-10T13:54:01;10.02;;;8.63;;
51981;SDS011;37998;53.416;6.730;2023-05-10T13:56:28;12.63;;;11.32;;
51981;SDS011;37998;53.416;6.730;2023-05-10T13:58:56;9.70;;;8.70;;
51981;SDS011;37998;53.416;6.730;2023-05-10T14:01:22;11.80;;;10.40;;
51981;SDS011;37998;53.416;6.730;2023-05-10T14:03:48;14.13;;;11.68;;
51981;SDS011;37998;53.416;6.730;2023-05-10T14:06:14;12.70;;;10.77;;
51981;SDS011;37998;53.416;6.730;2023-05-10T14:08:40;12.25;;;10.93;;
51981;SDS011;37998;53.416;6.730;2023-05-10T14:11:06;14.02;;;10.85;;
51981;SDS011;37998;53.416;6.730;2023-05-10T14:13:33;14.45;;;12.18;;
51981;SDS011;37998;53.416;6.730;2023-05-10T14:15:59;14.85;;;12.93;;
51981;SDS011;37998;53.416;6.730;2023-05-10T14:18:26;12.82;;;11.35;;
51981;SDS011;37998;53.416;6.730;2023-05-10T14:20:52;15.25;;;13.13;;
51981;SDS011;37998;53.416;6.730;2023-05-10T14:23:18;14.95;;;12.82;;
51981;SDS011;37998;53.416;6.730;2023-05-10T14:25:49;16.10;;;13.23;;
51981;SDS011;37998;53.416;6.730;2023-05-10T14:28:16;14.88;;;13.30;;
51981;SDS011;37998;53.416;6.730;2023-05-10T14:30:43;16.67;;;13.95;;
51981;SDS011;37998;53.416;6.730;2023-05-10T14:33:09;15.63;;;13.18;;
51981;SDS011;37998;53.416;6.730;2023-05-10T14:35:35;18.98;;;14.70;;
51981;SDS011;37998;53.416;6.730;2023-05-10T14:38:02;16.98;;;14.77;;
51981;SDS011;37998;53.416;6.730;2023-05-10T14:40:29;15.25;;;13.15;;
51981;SDS011;37998;53.416;6.730;2023-05-10T14:42:55;13.05;;;11.50;;
51981;SDS011;37998;53.416;6.730;2023-05-10T14:45:21;12.75;;;11.45;;
51981;SDS011;37998;53.416;6.730;2023-05-10T14:47:48;13.80;;;12.40;;
51981;SDS011;37998;53.416;6.730;2023-05-10T14:50:15;12.55;;;11.25;;
51981;SDS011;37998;53.416;6.730;2023-05-10T14:52:42;14.68;;;9.98;;
51981;SDS011;37998;53.416;6.730;2023-05-10T14:55:08;10.02;;;9.00;;
51981;SDS011;37998;53.416;6.730;2023-05-10T14:57:34;9.85;;;8.60;;
51981;SDS011;37998;53.416;6.730;2023-05-10T15:00:00;12.25;;;10.32;;
51981;SDS011;37998;53.416;6.730;2023-05-10T15:02:26;12.85;;;10.40;;
51981;SDS011;37998;53.416;6.730;2023-05-10T15:04:52;10.55;;;9.45;;
51981;SDS011;37998;53.416;6.730;2023-05-10T15:07:18;13.35;;;11.90;;
51981;SDS011;37998;53.416;6.730;2023-05-10T15:09:44;9.07;;;8.18;;
51981;SDS011;37998;53.416;6.730;2023-05-10T15:12:10;11.38;;;10.20;;
51981;SDS011;37998;53.416;6.730;2023-05-10T15:14:36;10.27;;;8.95;;
51981;SDS011;37998;53.416;6.730;2023-05-10T15:17:03;9.23;;;8.27;;
51981;SDS011;37998;53.416;6.730;2023-05-10T15:19:31;9.55;;;8.55;;
51981;SDS011;37998;53.416;6.730;2023-05-10T15:21:58;8.45;;;7.65;;
51981;SDS011;37998;53.416;6.730;2023-05-10T15:24:24;7.28;;;6.60;;